Time;durP1;ratioP1;P1;durP2;ratioP2;P2;SDS_P1;SDS_P2;PMS_P1;PMS_P2;Temp;Humidity;BMP_temperature;BMP_pressure;BME280_temperature;BME280_humidity;BME280_pressure;Samples;Min_cycle;Max_cycle;Signal;HPM_P1;HPM_P2
2024/04/05 00:13:01;;;;;;;13.33;11.93;;;10.70;99.90;;;;;;4550925;30;20227;-84
2024/04/05 00:33:13;;;;;;;13.77;12.37;;;10.70;99.90;;;;;;4689173;29;20247;-88
2024/04/05 00:53:23;;;;;;;11.40;10.20;;;11.10;99.90;;;;;;4550074;30;20407;-87
2024/04/05 01:29:27;;;;;;;10.03;9.03;;;10.80;99.90;;;;;;5226928;23;20762;-87
2024/04/05 01:33:47;;;;;;;11.13;9.90;;;10.90;99.90;;;;;;4839855;28;20556;-88
2024/04/05 01:54:44;;;;;;;9.93;8.77;;;11.00;99.90;;;;;;4827766;29;20322;-86
2024/04/05 02:20:04;;;;;;;7.67;5.90;;;11.10;99.90;;;;;;4786363;29;20277;-88
2024/04/05 02:49:51;;;;;;;6.53;3.80;;;10.80;99.90;;;;;;4615312;30;20734;-82
2024/04/05 03:10:14;;;;;;;4.90;4.00;;;10.50;99.90;;;;;;4618101;30;20266;-89
2024/04/05 03:35:31;;;;;;;4.77;4.30;;;10.60;99.90;;;;;;4700077;29;20690;-89
2024/04/05 04:01:30;;;;;;;5.20;4.70;;;10.80;99.90;;;;;;4704401;29;20480;-86
2024/04/05 04:31:39;;;;;;;5.30;4.80;;;10.80;99.90;;;;;;4887331;28;20606;-86
2024/04/05 05:02:11;;;;;;;5.00;4.43;;;10.50;99.90;;;;;;4887131;28;20444;-88
2024/04/05 05:27:37;;;;;;;4.70;4.27;;;10.40;99.90;;;;;;4693785;30;20212;-85
2024/04/05 05:58:09;;;;;;;4.57;4.17;;;11.10;99.90;;;;;;4739044;29;20237;-85
2024/04/05 06:17:57;;;;;;;5.03;4.33;;;11.80;99.90;;;;;;4644139;30;20542;-82
2024/04/05 06:38:53;;;;;;;5.20;4.70;;;12.30;97.20;;;;;;4709503;29;20205;-85
2024/04/05 07:14:22;;;;;;;5.33;4.83;;;12.80;92.60;;;;;;4912174;28;21016;-84
2024/04/05 07:39:09;;;;;;;4.83;4.43;;;13.10;91.30;;;;;;4601568;30;20521;-84
2024/04/05 07:59:51;;;;;;;4.97;4.57;;;14.20;89.20;;;;;;4692639;29;20466;-86
2024/04/05 08:20:07;;;;;;;4.70;4.40;;;14.30;88.50;;;;;;4758027;29;20299;-84
2024/04/05 08:45:15;;;;;;;4.47;3.87;;;15.20;86.50;;;;;;4769079;29;20623;-84
2024/04/05 09:16:09;;;;;;;3.50;3.30;;;15.40;85.10;;;;;;4820373;29;20235;-85
2024/04/05 09:46:15;;;;;;;4.20;3.27;;;15.40;84.20;;;;;;4888395;28;21344;-84
2024/04/05 10:11:35;;;;;;;3.17;2.97;;;16.10;83.30;;;;;;4878632;28;20621;-85
2024/04/05 10:31:37;;;;;;;5.33;3.17;;;16.00;83.10;;;;;;4682940;29;20233;-85
2024/04/05 10:57:46;;;;;;;3.30;2.93;;;15.60;83.70;;;;;;4798616;29;22096;-85
2024/04/05 11:02:00;;;;;;;3.50;3.20;;;15.60;83.40;;;;;;4734470;29;20605;-84
2024/04/05 11:22:41;;;;;;;5.23;2.67;;;16.40;82.60;;;;;;4750816;29;20227;-82
2024/04/05 11:43:18;;;;;;;4.23;2.60;;;17.10;81.70;;;;;;4643868;30;20444;-85
2024/04/05 12:44:10;;;;;;;6.33;2.97;;;16.60;79.80;;;;;;4750472;29;20365;-85
2024/04/05 13:14:32;;;;;;;3.40;3.10;;;16.60;81.70;;;;;;4877488;28;20320;-86
2024/04/05 13:39:25;;;;;;;4.07;2.63;;;17.10;79.70;;;;;;4774567;29;20231;-86
2024/04/05 13:54:50;;;;;;;3.47;2.13;;;16.90;79.50;;;;;;4676612;29;20441;-84
2024/04/05 14:25:26;;;;;;;3.10;1.33;;;17.40;72.30;;;;;;4772014;29;20233;-87
2024/04/05 14:50:54;;;;;;;5.23;1.70;;;17.70;70.60;;;;;;4696697;30;20234;-85
2024/04/05 15:26:34;;;;;;;2.63;1.60;;;17.40;70.00;;;;;;4830792;29;21237;-86
2024/04/05 15:56:43;;;;;;;2.30;1.57;;;16.60;70.90;;;;;;4774515;29;20244;-86
2024/04/05 16:17:10;;;;;;;4.03;2.10;;;17.00;72.30;;;;;;4827129;29;20243;-86
2024/04/05 16:42:41;;;;;;;3.07;1.90;;;17.00;72.00;;;;;;4877557;28;20230;-86
2024/04/05 16:47:02;;;;;;;1.97;1.80;;;16.60;72.80;;;;;;4876753;29;20292;-87
2024/04/05 17:08:02;;;;;;;4.50;2.20;;;14.70;77.80;;;;;;4788403;29;20344;-86
2024/04/05 17:12:22;;;;;;;7.83;2.30;;;14.40;79.10;;;;;;4775634;29;20623;-88
2024/04/05 17:32:44;;;;;;;6.00;3.20;;;13.00;82.60;;;;;;4708742;30;20517;-88
2024/04/05 17:58:40;;;;;;;5.07;4.57;;;12.00;87.10;;;;;;4741663;29;20230;-86
2024/04/05 18:29:08;;;;;;;9.60;6.10;;;11.30;90.00;;;;;;4957537;28;20200;-85
2024/04/05 18:54:28;;;;;;;9.90;6.87;;;11.60;91.20;;;;;;4846693;29;20257;-85
2024/04/05 19:19:29;;;;;;;10.73;7.03;;;12.20;91.40;;;;;;4683371;30;20333;-84
2024/04/05 19:34:56;;;;;;;10.67;7.07;;;12.60;90.50;;;;;;4673246;30;20253;-88
2024/04/05 19:55:24;;;;;;;9.67;7.87;;;12.90;90.10;;;;;;4780695;29;20221;-86
2024/04/05 20:35:48;;;;;;;11.97;8.27;;;11.70;92.30;;;;;;4880735;28;20263;-84
2024/04/05 20:55:53;;;;;;;11.23;8.60;;;11.80;92.60;;;;;;4683097;30;20581;-83
2024/04/05 21:31:45;;;;;;;12.93;10.70;;;11.70;92.60;;;;;;4917727;28;20587;-86
2024/04/05 22:07:08;;;;;;;7.40;6.60;;;11.30;95.10;;;;;;4827398;29;20354;-86
2024/04/05 22:37:36;;;;;;;9.83;6.50;;;12.70;90.30;;;;;;4854691;28;20253;-83
2024/04/05 22:58:00;;;;;;;9.40;7.10;;;12.90;89.00;;;;;;4895119;28;20235;-86
2024/04/05 23:02:19;;;;;;;9.13;7.17;;;12.90;89.00;;;;;;4787598;29;20474;-85
2024/04/05 23:18:16;;;;;;;10.03;6.20;;;13.10;88.40;;;;;;4721767;29;20225;-85
2024/04/05 23:43:08;;;;;;;12.27;6.87;;;13.20;88.10;;;;;;4486913;30;20340;-82
